This is the latest recevied weather packets stored in our database for station/object IW1AXR-3. If no packets are shown the sender has not sent any weather packets the latest 10 day(s).
| Time | Temp. | Humidity | Pressure | Rain* | Wind** | Luminosity | Snow |
|---|---|---|---|---|---|---|---|
| 1777741398 | 19.44° C | 45% | 1018.8 hPa | - | - | - | - |
| 1777740794 | 20° C | 44% | 1018.8 hPa | - | - | - | - |
| 1777738984 | 20.56° C | 43% | 1019.1 hPa | - | - | - | - |
| 1777737777 | 20.56° C | 41% | 1019.2 hPa | - | - | - | - |
| 1777737174 | 20.56° C | 41% | 1019.3 hPa | - | - | - | - |
| 1777735967 | 21.67° C | 42% | 1019.4 hPa | - | - | - | - |
| 1777735363 | 21.11° C | 41% | 1019.5 hPa | - | - | - | - |
| 1777734760 | 20.56° C | 41% | 1019.6 hPa | - | - | - | - |
| 1777734156 | 21.67° C | 42% | 1019.7 hPa | - | - | - | - |
| 1777731139 | 20.56° C | 47% | 1020.6 hPa | - | - | - | - |
| 1777729933 | 21.11° C | 46% | 1020.8 hPa | - | - | - | - |
| 1777728123 | 21.11° C | 45% | 1021.1 hPa | - | - | - | - |
| 1777727519 | 20.56° C | 44% | 1021.1 hPa | - | - | - | - |
| 1777726917 | 20.56° C | 45% | 1021.3 hPa | - | - | - | - |
| 1777725710 | 21.67° C | 45% | 1021.5 hPa | - | - | - | - |
| 1777724502 | 20.56° C | 49% | 1021.8 hPa | - | - | - | - |
| 1777722692 | 20° C | 49% | 1022.2 hPa | - | - | - | - |
| 1777722089 | 21.67° C | 46% | 1022.5 hPa | - | - | - | - |
| 1777721485 | 20.56° C | 47% | 1022.5 hPa | - | - | - | - |
| 1777717240 | 20° C | 49% | 1023.4 hPa | - | - | - | - |
| 1777715412 | 19.44° C | 49% | 1023.8 hPa | - | - | - | - |
| 1777709976 | 17.78° C | 54% | 1024.5 hPa | - | - | - | - |
| 1777709939 | 17.78° C | 54% | 1024.5 hPa | - | - | - | - |
| 1777707502 | 16.11° C | 61% | 1024.7 hPa | - | - | - | - |
| 1777705071 | 12.22° C | 80% | 1024.9 hPa | - | - | - | - |
* Rain since midnight (hover to see other rain measurements)
** Current wind speed in m/s (hover to see current wind gust speed)